Time;durP1;ratioP1;P1;durP2;ratioP2;P2;SDS_P1;SDS_P2;PMS_P1;PMS_P2;Temp;Humidity;BMP_temperature;BMP_pressure;BME280_temperature;BME280_humidity;BME280_pressure;Samples;Min_cycle;Max_cycle;Signal;HPM_P1;HPM_P2
2023/09/20 00:00:11;;;;;;;1.00;0.35;;;16.50;99.90;;;;;;5067292;28;20736;-65
2023/09/20 00:02:40;;;;;;;0.60;0.55;;;16.50;99.90;;;;;;5030593;28;20764;-64
2023/09/20 00:05:15;;;;;;;0.47;0.47;;;16.60;99.90;;;;;;5040931;28;20036;-65
2023/09/20 00:07:41;;;;;;;1.38;0.35;;;16.60;99.90;;;;;;5070692;28;20040;-64
2023/09/20 00:10:14;;;;;;;0.20;0.20;;;16.60;99.90;;;;;;5045750;28;20043;-66
2023/09/20 00:12:44;;;;;;;2.92;0.40;;;16.60;99.90;;;;;;5036663;28;20479;-65
2023/09/20 00:15:10;;;;;;;0.25;0.25;;;16.60;99.90;;;;;;5040040;28;20033;-65
2023/09/20 00:17:36;;;;;;;0.65;0.47;;;16.70;99.90;;;;;;5039773;28;20040;-64
2023/09/20 00:20:11;;;;;;;0.85;0.35;;;16.70;99.90;;;;;;5036522;28;20426;-64
2023/09/20 00:22:40;;;;;;;0.77;0.47;;;16.70;99.90;;;;;;5038844;28;20041;-65
2023/09/20 00:25:07;;;;;;;0.10;0.10;;;16.70;99.90;;;;;;5018861;28;20045;-65
2023/09/20 00:27:33;;;;;;;0.40;0.40;;;16.70;99.90;;;;;;5020231;28;20051;-65
2023/09/20 00:29:58;;;;;;;0.15;0.13;;;16.70;99.90;;;;;;5067727;28;20036;-65
2023/09/20 00:32:24;;;;;;;0.30;0.20;;;16.70;99.90;;;;;;5038861;28;20052;-65
2023/09/20 00:34:50;;;;;;;0.70;0.45;;;16.70;99.90;;;;;;5057845;28;20028;-64
2023/09/20 00:37:16;;;;;;;0.50;0.50;;;16.70;99.90;;;;;;5035381;28;20760;-65
2023/09/20 00:39:41;;;;;;;0.90;0.60;;;16.80;99.90;;;;;;5041532;28;20094;-64
2023/09/20 00:42:08;;;;;;;0.68;0.68;;;16.80;99.90;;;;;;5031101;28;20475;-65
2023/09/20 00:44:35;;;;;;;0.20;0.20;;;16.80;99.90;;;;;;5037352;28;20495;-66
2023/09/20 00:47:03;;;;;;;0.50;0.47;;;16.80;99.90;;;;;;5041075;28;20763;-65
2023/09/20 00:49:29;;;;;;;13.52;0.75;;;16.80;99.90;;;;;;5036631;28;20143;-65
2023/09/20 00:51:55;;;;;;;4.40;0.45;;;16.80;99.90;;;;;;5045748;28;20549;-65
2023/09/20 00:54:22;;;;;;;0.70;0.10;;;16.80;99.90;;;;;;5039699;28;20108;-65
2023/09/20 00:56:49;;;;;;;0.22;0.22;;;16.80;99.90;;;;;;5030218;28;20076;-66
2023/09/20 00:59:16;;;;;;;0.32;0.32;;;16.80;99.90;;;;;;5038267;28;20554;-65
2023/09/20 01:01:42;;;;;;;0.25;0.25;;;16.80;99.90;;;;;;5034476;28;20128;-64
2023/09/20 01:04:08;;;;;;;9.85;0.52;;;16.90;99.90;;;;;;5031811;28;20461;-65
2023/09/20 01:06:35;;;;;;;0.20;0.20;;;16.90;99.90;;;;;;5035690;28;20044;-65
2023/09/20 01:09:01;;;;;;;1.23;0.10;;;16.90;99.90;;;;;;5041066;28;20044;-64
2023/09/20 01:11:27;;;;;;;0.25;0.25;;;16.90;99.90;;;;;;5034859;28;20047;-65
2023/09/20 01:13:53;;;;;;;0.20;0.20;;;16.90;99.90;;;;;;5040782;28;20487;-65
2023/09/20 01:16:18;;;;;;;5.93;0.75;;;16.90;99.90;;;;;;5033431;28;20047;-65
2023/09/20 01:18:44;;;;;;;0.63;0.63;;;16.90;99.90;;;;;;5067964;28;20045;-65
2023/09/20 01:21:11;;;;;;;0.30;0.30;;;16.90;99.90;;;;;;5052492;28;20040;-65
2023/09/20 01:23:38;;;;;;;0.70;0.40;;;16.90;99.90;;;;;;5042955;28;20048;-65
2023/09/20 01:26:04;;;;;;;0.20;0.20;;;16.90;99.90;;;;;;5034572;28;20404;-64
2023/09/20 01:28:30;;;;;;;0.10;0.10;;;16.90;99.90;;;;;;5035719;28;20037;-64
2023/09/20 01:30:58;;;;;;;0.63;0.40;;;16.90;99.90;;;;;;5063913;28;20044;-65
2023/09/20 01:33:24;;;;;;;0.20;0.20;;;16.90;99.90;;;;;;5044384;28;20505;-65
2023/09/20 01:35:50;;;;;;;0.93;0.93;;;16.90;99.90;;;;;;5038583;28;20044;-65
2023/09/20 01:38:15;;;;;;;0.63;0.20;;;16.90;99.90;;;;;;5040373;28;20401;-65
2023/09/20 01:40:41;;;;;;;0.30;0.30;;;16.90;99.90;;;;;;5056517;28;20041;-65
2023/09/20 01:43:06;;;;;;;2.22;0.65;;;16.90;99.90;;;;;;5059176;28;20036;-65
2023/09/20 01:45:34;;;;;;;0.55;0.13;;;16.90;99.90;;;;;;5035967;28;20535;-65
2023/09/20 01:48:00;;;;;;;1.65;0.30;;;16.90;99.90;;;;;;5038300;28;20049;-64
2023/09/20 01:50:27;;;;;;;0.10;0.10;;;16.90;99.90;;;;;;5040312;28;20531;-65
2023/09/20 01:52:55;;;;;;;0.82;0.82;;;17.00;99.90;;;;;;5038294;28;20060;-66
2023/09/20 01:55:22;;;;;;;0.30;0.30;;;16.90;99.90;;;;;;5070045;28;20028;-65
2023/09/20 01:57:59;;;;;;;6.03;0.70;;;16.90;99.90;;;;;;5043426;28;20431;-65
2023/09/20 02:00:29;;;;;;;1.08;0.95;;;16.90;99.90;;;;;;5041315;28;20163;-65
2023/09/20 02:02:57;;;;;;;0.55;0.55;;;17.00;99.90;;;;;;5044017;28;20259;-65
2023/09/20 02:05:23;;;;;;;0.75;0.75;;;16.90;99.90;;;;;;5038427;28;20075;-64
2023/09/20 02:07:51;;;;;;;0.52;0.40;;;17.00;99.90;;;;;;5040246;28;20045;-65
2023/09/20 02:10:17;;;;;;;0.28;0.13;;;17.00;99.90;;;;;;5041861;28;20403;-65
2023/09/20 02:12:51;;;;;;;0.70;0.38;;;17.00;99.90;;;;;;5037002;28;20048;-65
2023/09/20 02:15:18;;;;;;;0.30;0.30;;;17.00;99.90;;;;;;5073878;28;20132;-65
2023/09/20 02:17:47;;;;;;;0.30;0.30;;;17.00;99.90;;;;;;5038903;28;20032;-65
2023/09/20 02:20:20;;;;;;;1.65;0.55;;;17.00;99.90;;;;;;5059795;28;20094;-65
2023/09/20 02:22:55;;;;;;;0.15;0.15;;;17.00;99.90;;;;;;5044494;28;20043;-65
2023/09/20 02:25:22;;;;;;;0.25;0.25;;;17.00;99.90;;;;;;5039060;28;20033;-65
2023/09/20 02:27:49;;;;;;;0.65;0.30;;;17.00;99.90;;;;;;5036118;28;20041;-65
2023/09/20 02:30:16;;;;;;;0.20;0.20;;;17.00;99.90;;;;;;5037619;28;20591;-65
2023/09/20 02:32:42;;;;;;;0.28;0.28;;;17.00;99.90;;;;;;5044908;28;20101;-66
2023/09/20 02:35:08;;;;;;;0.20;0.20;;;17.00;99.90;;;;;;5042343;28;20123;-66
2023/09/20 02:37:35;;;;;;;0.45;0.45;;;17.00;99.90;;;;;;5039286;28;20566;-66
2023/09/20 02:40:07;;;;;;;0.30;0.30;;;17.00;99.90;;;;;;5044489;28;20037;-65
2023/09/20 02:42:43;;;;;;;0.10;0.10;;;16.90;99.90;;;;;;5033364;28;20047;-65
2023/09/20 02:45:09;;;;;;;0.10;0.10;;;16.90;99.90;;;;;;5042658;28;20036;-65
2023/09/20 02:47:34;;;;;;;0.10;0.10;;;16.90;99.90;;;;;;5041414;28;20052;-64
2023/09/20 02:50:00;;;;;;;0.32;0.32;;;16.90;99.90;;;;;;5042503;28;20432;-65
2023/09/20 02:52:26;;;;;;;0.30;0.30;;;16.90;99.90;;;;;;5035382;28;20258;-65
2023/09/20 02:54:51;;;;;;;0.30;0.30;;;16.90;99.90;;;;;;5071762;28;20043;-65
2023/09/20 02:57:17;;;;;;;0.52;0.30;;;16.90;99.90;;;;;;5040298;28;20037;-64
2023/09/20 02:59:43;;;;;;;0.10;0.10;;;16.90;99.90;;;;;;5044638;28;20460;-66
2023/09/20 03:02:10;;;;;;;0.10;0.10;;;16.90;99.90;;;;;;5041010;28;20048;-66
2023/09/20 03:04:38;;;;;;;0.20;0.20;;;16.90;99.90;;;;;;5041290;28;20036;-64
2023/09/20 03:07:09;;;;;;;0.35;0.35;;;16.90;99.90;;;;;;5036046;28;20060;-65
2023/09/20 03:09:36;;;;;;;0.40;0.40;;;16.90;99.90;;;;;;5037287;28;20049;-65
2023/09/20 03:12:06;;;;;;;1.88;0.20;;;16.90;99.90;;;;;;5037893;28;20050;-66
2023/09/20 03:14:33;;;;;;;1.63;0.70;;;16.90;99.90;;;;;;5072446;28;20450;-65
2023/09/20 03:17:00;;;;;;;1.15;0.40;;;16.90;99.90;;;;;;5073966;28;20040;-65
2023/09/20 03:19:26;;;;;;;0.52;0.47;;;16.90;99.90;;;;;;5041081;28;20403;-65
2023/09/20 03:21:53;;;;;;;0.08;0.08;;;16.80;99.90;;;;;;5036452;28;20037;-66
2023/09/20 03:24:18;;;;;;;0.20;0.20;;;16.80;99.90;;;;;;5035701;28;20040;-65
2023/09/20 03:26:44;;;;;;;0.28;0.28;;;16.70;99.90;;;;;;5034265;28;20044;-66
2023/09/20 03:29:10;;;;;;;1.75;0.35;;;16.70;99.90;;;;;;5070212;28;20043;-65
2023/09/20 03:31:35;;;;;;;0.10;0.10;;;16.60;99.90;;;;;;5035173;28;20035;-65
2023/09/20 03:34:01;;;;;;;4.25;0.32;;;16.60;99.90;;;;;;5039110;28;20122;-65
2023/09/20 03:36:27;;;;;;;0.57;0.55;;;16.50;99.90;;;;;;5033553;28;20045;-65
2023/09/20 03:38:55;;;;;;;0.20;0.20;;;16.50;99.90;;;;;;5042638;28;20047;-65
2023/09/20 03:41:20;;;;;;;0.17;0.17;;;16.50;99.90;;;;;;5036186;28;20617;-66
2023/09/20 03:43:47;;;;;;;0.20;0.20;;;16.40;99.90;;;;;;5037171;28;20045;-65
2023/09/20 03:46:13;;;;;;;0.50;0.50;;;16.40;99.90;;;;;;5039086;28;20116;-65
2023/09/20 03:48:39;;;;;;;4.55;0.63;;;16.40;99.90;;;;;;5039571;28;20079;-65
2023/09/20 03:51:04;;;;;;;0.22;0.22;;;16.40;99.90;;;;;;5041126;28;20056;-65
2023/09/20 03:53:30;;;;;;;0.35;0.35;;;16.40;99.90;;;;;;5068317;28;20033;-65
2023/09/20 03:55:56;;;;;;;0.28;0.28;;;16.30;99.90;;;;;;5074874;28;20492;-65
2023/09/20 03:58:21;;;;;;;0.73;0.60;;;16.30;99.90;;;;;;5043077;28;20049;-65
2023/09/20 04:00:47;;;;;;;0.10;0.10;;;16.30;99.90;;;;;;5016709;28;20110;-66
2023/09/20 04:03:13;;;;;;;0.43;0.32;;;16.30;99.90;;;;;;5038519;28;20079;-65
2023/09/20 04:05:39;;;;;;;0.10;0.10;;;16.20;99.90;;;;;;5071932;28;21364;-65
2023/09/20 04:08:08;;;;;;;0.10;0.10;;;16.20;99.90;;;;;;5072333;28;20048;-66
2023/09/20 04:10:35;;;;;;;0.52;0.40;;;16.20;99.90;;;;;;5036357;28;20090;-66
2023/09/20 04:13:01;;;;;;;0.40;0.25;;;16.20;99.90;;;;;;5021206;28;20041;-66
2023/09/20 04:15:27;;;;;;;0.82;0.82;;;16.20;99.90;;;;;;5068527;28;20537;-65
2023/09/20 04:17:53;;;;;;;0.10;0.10;;;16.10;99.90;;;;;;5035582;28;20029;-66
2023/09/20 04:20:20;;;;;;;0.10;0.10;;;16.10;99.90;;;;;;5040929;28;20039;-66
2023/09/20 04:22:47;;;;;;;1.30;0.25;;;16.10;99.90;;;;;;5069876;28;20066;-66
2023/09/20 04:25:12;;;;;;;0.10;0.10;;;16.10;99.90;;;;;;5031252;28;20468;-66
2023/09/20 04:27:38;;;;;;;0.20;0.20;;;16.10;99.90;;;;;;5032956;28;20040;-65
2023/09/20 04:30:07;;;;;;;0.20;0.20;;;16.10;99.90;;;;;;5063622;28;20036;-66
2023/09/20 04:32:33;;;;;;;0.20;0.20;;;16.10;99.90;;;;;;5065717;28;20122;-67
2023/09/20 04:34:58;;;;;;;0.25;0.25;;;16.10;99.90;;;;;;5034222;28;20332;-66
2023/09/20 04:37:25;;;;;;;0.20;0.20;;;16.10;99.90;;;;;;5067284;28;20037;-67
2023/09/20 04:39:51;;;;;;;0.17;0.17;;;16.10;99.90;;;;;;5043738;28;20047;-66
2023/09/20 04:42:17;;;;;;;0.10;0.10;;;16.10;99.90;;;;;;5043869;28;20756;-65
2023/09/20 04:44:42;;;;;;;0.25;0.25;;;16.10;99.90;;;;;;5029772;28;20041;-65
2023/09/20 04:47:10;;;;;;;0.13;0.13;;;16.10;99.90;;;;;;5036357;28;20064;-66
2023/09/20 04:49:37;;;;;;;0.10;0.10;;;16.10;99.90;;;;;;5057841;28;20067;-65
2023/09/20 04:52:04;;;;;;;1.17;0.57;;;16.00;99.90;;;;;;5038605;28;20539;-65
2023/09/20 04:54:30;;;;;;;0.45;0.32;;;16.10;99.90;;;;;;5032455;28;20071;-66
2023/09/20 04:56:55;;;;;;;0.75;0.20;;;16.10;99.90;;;;;;5064573;28;20525;-66
2023/09/20 04:59:22;;;;;;;2.97;0.32;;;16.00;99.90;;;;;;5034136;28;20033;-67
2023/09/20 05:01:49;;;;;;;0.47;0.28;;;16.00;99.90;;;;;;5020051;28;20119;-67
2023/09/20 05:04:15;;;;;;;0.95;0.50;;;16.00;99.90;;;;;;5067558;28;20490;-66
2023/09/20 05:06:42;;;;;;;0.10;0.10;;;16.00;99.90;;;;;;5034390;28;20040;-67
2023/09/20 05:09:08;;;;;;;0.08;0.08;;;15.90;99.90;;;;;;5040319;28;20041;-66
2023/09/20 05:11:34;;;;;;;0.03;0.03;;;15.90;99.90;;;;;;5042013;28;20036;-67
2023/09/20 05:14:00;;;;;;;1.38;0.15;;;15.80;99.90;;;;;;5042002;28;20043;-67
2023/09/20 05:16:26;;;;;;;0.28;0.28;;;15.80;99.90;;;;;;5038239;28;20098;-67
2023/09/20 05:18:52;;;;;;;0.30;0.30;;;15.80;99.90;;;;;;5078473;28;20478;-67
2023/09/20 05:21:18;;;;;;;0.52;0.38;;;15.70;99.90;;;;;;5035846;28;20052;-66
2023/09/20 05:23:43;;;;;;;0.10;0.10;;;15.70;99.90;;;;;;5042210;28;20380;-67
2023/09/20 05:26:09;;;;;;;0.38;0.38;;;15.70;99.90;;;;;;5039711;28;20129;-67
2023/09/20 05:28:35;;;;;;;0.10;0.10;;;15.70;99.90;;;;;;5023274;28;20457;-67
2023/09/20 05:31:05;;;;;;;2.78;0.30;;;15.70;99.90;;;;;;5042670;28;20044;-67
2023/09/20 05:33:31;;;;;;;0.43;0.43;;;15.70;99.90;;;;;;5043103;28;20112;-66
2023/09/20 05:35:58;;;;;;;0.08;0.08;;;15.70;99.90;;;;;;5043609;28;20391;-66
2023/09/20 05:38:27;;;;;;;0.25;0.25;;;15.70;99.90;;;;;;5049150;28;20036;-67
2023/09/20 05:40:53;;;;;;;0.17;0.17;;;15.60;99.90;;;;;;5047764;28;20071;-67
2023/09/20 05:43:19;;;;;;;0.10;0.10;;;15.60;99.90;;;;;;5048643;28;20043;-66
2023/09/20 05:45:44;;;;;;;0.20;0.20;;;15.60;99.90;;;;;;5050476;28;20032;-67
2023/09/20 05:48:10;;;;;;;1.08;0.73;;;15.60;99.90;;;;;;5049606;28;20056;-67
2023/09/20 05:50:36;;;;;;;0.10;0.10;;;15.60;99.90;;;;;;5051399;28;20040;-67
2023/09/20 05:53:06;;;;;;;1.85;0.20;;;15.60;99.90;;;;;;5070561;28;20041;-67
2023/09/20 05:55:35;;;;;;;0.10;0.10;;;15.70;99.90;;;;;;5044619;28;20037;-66
2023/09/20 05:58:02;;;;;;;0.40;0.15;;;15.80;99.90;;;;;;5054840;28;20483;-67
2023/09/20 06:00:29;;;;;;;0.45;0.45;;;15.80;99.90;;;;;;5043006;28;20076;-66
2023/09/20 06:02:59;;;;;;;0.20;0.20;;;15.80;99.90;;;;;;5048941;28;20044;-66
2023/09/20 06:05:25;;;;;;;0.45;0.45;;;15.80;99.90;;;;;;5048035;28;20040;-66
2023/09/20 06:07:54;;;;;;;0.10;0.10;;;15.90;99.90;;;;;;5035824;28;20041;-66
2023/09/20 06:10:22;;;;;;;0.10;0.10;;;15.90;99.90;;;;;;5056390;28;20072;-66
2023/09/20 06:12:48;;;;;;;0.40;0.32;;;15.90;99.90;;;;;;5052619;28;20059;-66
2023/09/20 06:15:14;;;;;;;0.10;0.10;;;16.00;99.90;;;;;;5053064;28;20048;-67
2023/09/20 06:17:42;;;;;;;0.13;0.13;;;16.00;99.90;;;;;;5034709;28;20102;-66
2023/09/20 06:20:19;;;;;;;0.13;0.13;;;16.10;99.90;;;;;;5044284;28;20475;-67
2023/09/20 06:22:46;;;;;;;0.10;0.10;;;16.20;99.90;;;;;;5049216;28;20082;-67
2023/09/20 06:25:12;;;;;;;0.10;0.10;;;16.20;99.90;;;;;;5040446;28;20476;-66
2023/09/20 06:27:39;;;;;;;0.05;0.05;;;16.30;99.90;;;;;;5035407;28;20040;-66
2023/09/20 06:30:13;;;;;;;0.25;0.20;;;16.40;99.90;;;;;;5043705;28;20048;-67
2023/09/20 06:32:40;;;;;;;0.32;0.32;;;16.40;99.90;;;;;;5049943;28;20318;-67
2023/09/20 06:35:07;;;;;;;0.10;0.10;;;16.40;99.90;;;;;;5051387;28;20048;-67
2023/09/20 06:37:34;;;;;;;0.10;0.10;;;16.40;99.90;;;;;;5065166;28;20029;-66
2023/09/20 06:39:59;;;;;;;0.45;0.45;;;16.40;99.90;;;;;;5062442;28;20048;-66
2023/09/20 06:42:30;;;;;;;1.10;0.30;;;16.50;99.90;;;;;;5037574;28;20072;-66
2023/09/20 06:44:56;;;;;;;2.05;0.45;;;16.50;99.90;;;;;;5038151;28;20056;-66
2023/09/20 06:47:24;;;;;;;0.20;0.10;;;16.50;99.90;;;;;;5046692;28;20044;-65
2023/09/20 06:49:51;;;;;;;0.13;0.13;;;16.50;99.90;;;;;;5048279;28;20337;-66
2023/09/20 06:52:18;;;;;;;0.20;0.20;;;16.50;99.90;;;;;;5038578;28;20047;-66
2023/09/20 06:54:45;;;;;;;0.25;0.25;;;16.60;99.90;;;;;;5046141;28;20036;-67
2023/09/20 06:57:17;;;;;;;1.25;0.40;;;16.60;99.90;;;;;;5038487;28;20080;-65
2023/09/20 06:59:45;;;;;;;0.75;0.75;;;16.60;99.90;;;;;;5032703;28;20049;-65
2023/09/20 07:02:12;;;;;;;0.20;0.20;;;16.60;99.90;;;;;;5076178;28;20071;-66
2023/09/20 07:04:39;;;;;;;0.13;0.13;;;16.60;99.90;;;;;;5050010;28;20495;-66
2023/09/20 07:07:05;;;;;;;0.65;0.47;;;16.60;99.90;;;;;;5047067;28;20044;-66
2023/09/20 07:09:31;;;;;;;0.80;0.40;;;16.60;99.90;;;;;;5041828;28;20481;-66
2023/09/20 07:12:01;;;;;;;0.10;0.10;;;16.60;99.90;;;;;;5035542;28;20079;-66
2023/09/20 07:14:30;;;;;;;0.20;0.20;;;16.70;99.90;;;;;;5040433;28;20072;-66
2023/09/20 07:16:55;;;;;;;0.40;0.25;;;16.70;99.90;;;;;;5039571;28;20499;-66
2023/09/20 07:19:23;;;;;;;0.10;0.10;;;16.80;99.90;;;;;;5059603;28;20036;-66
2023/09/20 07:21:50;;;;;;;0.20;0.20;;;16.80;99.90;;;;;;5069229;28;20486;-66
2023/09/20 07:24:15;;;;;;;0.20;0.20;;;17.00;99.90;;;;;;5038091;28;20088;-65
2023/09/20 07:26:45;;;;;;;0.25;0.25;;;17.10;99.90;;;;;;5036179;28;20460;-66
2023/09/20 07:29:14;;;;;;;0.10;0.10;;;17.20;99.90;;;;;;5043820;28;20110;-66
2023/09/20 07:31:40;;;;;;;0.73;0.30;;;17.30;99.90;;;;;;5046072;28;20036;-66
2023/09/20 07:34:12;;;;;;;1.98;0.25;;;17.40;99.90;;;;;;5048077;28;20043;-66
2023/09/20 07:36:43;;;;;;;0.17;0.17;;;17.40;99.90;;;;;;5044767;28;20033;-66
2023/09/20 07:39:13;;;;;;;1.08;0.43;;;17.50;99.90;;;;;;5072771;28;20037;-66
2023/09/20 07:41:48;;;;;;;0.80;0.20;;;17.50;99.90;;;;;;5028470;28;20422;-66
2023/09/20 07:44:13;;;;;;;2.67;1.90;;;17.40;99.90;;;;;;5077336;28;20044;-67
2023/09/20 07:46:40;;;;;;;0.10;0.10;;;17.50;99.90;;;;;;5043964;28;20052;-66
2023/09/20 07:49:09;;;;;;;0.10;0.10;;;17.40;99.90;;;;;;5058789;28;20048;-67
2023/09/20 07:51:39;;;;;;;0.10;0.10;;;17.50;99.90;;;;;;5039082;28;20079;-67
2023/09/20 07:54:10;;;;;;;0.30;0.30;;;17.50;99.90;;;;;;5050145;28;20387;-66
2023/09/20 07:56:40;;;;;;;0.10;0.10;;;17.50;99.90;;;;;;5040859;28;20064;-66
2023/09/20 07:59:05;;;;;;;0.85;0.85;;;17.60;99.90;;;;;;5061018;28;20032;-67
2023/09/20 08:01:32;;;;;;;0.13;0.13;;;17.60;99.90;;;;;;5034285;28;20067;-67
2023/09/20 08:03:58;;;;;;;0.10;0.10;;;17.60;99.90;;;;;;5067117;28;20483;-67
2023/09/20 08:06:35;;;;;;;1.40;0.20;;;17.70;99.90;;;;;;5037032;28;20041;-67
2023/09/20 08:09:01;;;;;;;1.55;0.45;;;17.70;99.90;;;;;;5064372;28;20037;-66
2023/09/20 08:11:28;;;;;;;0.10;0.10;;;17.60;99.90;;;;;;5032324;28;20041;-66
2023/09/20 08:13:55;;;;;;;0.10;0.10;;;17.60;99.90;;;;;;5036185;28;20033;-68
2023/09/20 08:16:23;;;;;;;0.20;0.20;;;17.60;99.90;;;;;;5044314;28;20040;-67
2023/09/20 08:19:20;;;;;;;0.30;0.30;;;17.50;99.90;;;;;;5045945;28;20101;-66
2023/09/20 08:21:47;;;;;;;0.35;0.35;;;17.50;99.90;;;;;;5032012;28;20496;-66
2023/09/20 09:00:21;;;;;;;0.30;0.30;;;17.70;99.90;;;;;;5052494;28;20114;-65
2023/09/20 09:02:53;;;;;;;1.17;0.55;;;17.70;99.90;;;;;;5044269;28;20047;-66
2023/09/20 09:05:23;;;;;;;1.27;1.00;;;17.70;99.90;;;;;;5053502;28;20052;-66
2023/09/20 09:07:49;;;;;;;0.35;0.35;;;17.70;99.90;;;;;;5049182;28;20045;-66
2023/09/20 09:10:15;;;;;;;0.20;0.20;;;17.70;99.90;;;;;;5051458;28;20463;-65
2023/09/20 09:12:41;;;;;;;0.15;0.15;;;17.60;99.90;;;;;;5051687;28;20036;-66
2023/09/20 09:15:12;;;;;;;0.20;0.20;;;17.70;99.90;;;;;;5055028;28;20448;-65
2023/09/20 09:17:56;;;;;;;0.60;0.60;;;17.70;99.90;;;;;;5045265;28;20052;-66
2023/09/20 09:20:22;;;;;;;0.10;0.10;;;17.70;99.90;;;;;;5044923;28;20117;-66
2023/09/20 09:22:52;;;;;;;0.40;0.40;;;17.80;99.90;;;;;;5050477;28;20551;-66
2023/09/20 09:25:20;;;;;;;1.35;0.77;;;17.90;99.90;;;;;;5040069;28;20052;-65
2023/09/20 09:27:46;;;;;;;0.10;0.10;;;18.00;99.90;;;;;;5052313;28;20039;-66
2023/09/20 09:30:16;;;;;;;0.68;0.30;;;18.10;99.90;;;;;;5056371;28;20040;-66
2023/09/20 09:32:43;;;;;;;1.13;1.02;;;18.20;99.90;;;;;;5035945;28;20488;-66
2023/09/20 09:35:09;;;;;;;0.20;0.20;;;18.30;99.90;;;;;;5037516;28;20497;-67
2023/09/20 09:37:36;;;;;;;0.13;0.13;;;18.40;99.90;;;;;;5035608;28;20129;-67
2023/09/20 09:40:05;;;;;;;0.10;0.10;;;18.50;99.90;;;;;;5035473;28;20467;-65
2023/09/20 09:42:31;;;;;;;0.17;0.17;;;18.50;99.90;;;;;;5036178;28;20507;-66
2023/09/20 09:45:04;;;;;;;0.30;0.30;;;18.60;99.90;;;;;;5034687;28;20064;-65
2023/09/20 09:47:30;;;;;;;0.15;0.15;;;18.50;99.90;;;;;;5080858;28;20047;-65
2023/09/20 09:49:58;;;;;;;0.20;0.20;;;18.50;99.90;;;;;;5062358;28;20055;-65
2023/09/20 09:52:23;;;;;;;0.47;0.47;;;18.50;99.90;;;;;;5033197;28;20140;-67
2023/09/20 09:54:51;;;;;;;0.15;0.15;;;18.50;99.90;;;;;;5037373;28;20127;-67
2023/09/20 09:57:18;;;;;;;2.53;0.28;;;18.50;99.90;;;;;;5039133;28;20400;-66
2023/09/20 09:59:48;;;;;;;0.10;0.10;;;18.50;99.90;;;;;;5045248;28;20044;-67
2023/09/20 10:02:19;;;;;;;0.52;0.52;;;18.50;99.90;;;;;;5037993;28;20045;-66
2023/09/20 10:05:01;;;;;;;6.10;1.27;;;18.50;99.90;;;;;;5050738;28;20471;-67
2023/09/20 10:07:37;;;;;;;0.28;0.28;;;18.50;99.90;;;;;;5032234;28;20045;-66
2023/09/20 10:10:08;;;;;;;0.20;0.20;;;18.50;99.90;;;;;;5060899;28;20439;-66
2023/09/20 10:12:36;;;;;;;0.32;0.32;;;18.50;99.90;;;;;;5074525;28;20067;-67
2023/09/20 10:15:07;;;;;;;0.17;0.10;;;18.50;99.90;;;;;;5028784;28;20033;-67
2023/09/20 10:17:34;;;;;;;0.57;0.57;;;18.60;99.90;;;;;;5045731;28;20047;-67
2023/09/20 10:20:04;;;;;;;0.95;0.90;;;18.60;99.90;;;;;;5054035;28;20071;-66
2023/09/20 10:22:31;;;;;;;0.10;0.10;;;18.70;99.90;;;;;;5045486;28;20032;-67
2023/09/20 10:25:01;;;;;;;0.03;0.03;;;18.60;99.90;;;;;;5043883;28;20552;-67
2023/09/20 10:27:36;;;;;;;0.52;0.30;;;18.70;99.90;;;;;;5044886;28;20037;-68
2023/09/20 10:30:14;;;;;;;1.08;0.47;;;18.70;99.90;;;;;;5079870;28;20149;-67
2023/09/20 10:32:47;;;;;;;0.90;0.28;;;18.60;99.90;;;;;;5080999;28;20040;-68
2023/09/20 10:35:29;;;;;;;0.20;0.20;;;18.60;99.90;;;;;;5034793;28;20499;-66
2023/09/20 10:38:01;;;;;;;;;;;18.60;99.90;;;;;;5033875;28;20069;-66
2023/09/20 10:40:45;;;;;;;0.10;0.10;;;18.50;99.90;;;;;;5066430;28;19921;-67
2023/09/20 10:43:25;;;;;;;0.30;0.30;;;18.40;99.90;;;;;;5033667;28;20299;-67
2023/09/20 10:45:51;;;;;;;0.10;0.10;;;18.40;99.90;;;;;;5035253;28;20124;-66
2023/09/20 10:48:26;;;;;;;0.63;0.32;;;18.40;99.90;;;;;;5039427;28;20036;-67
2023/09/20 10:50:57;;;;;;;0.10;0.10;;;18.40;99.90;;;;;;5034974;28;20040;-66
2023/09/20 10:53:55;;;;;;;0.20;0.20;;;18.40;99.90;;;;;;5038202;28;20437;-67
2023/09/20 10:56:53;;;;;;;0.10;0.10;;;18.40;99.90;;;;;;5033579;28;20097;-66
2023/09/20 10:59:25;;;;;;;0.57;0.55;;;18.40;99.90;;;;;;5036227;28;20052;-67
2023/09/20 11:01:56;;;;;;;1.02;0.35;;;18.40;99.90;;;;;;5036830;28;20037;-67
2023/09/20 11:04:22;;;;;;;0.10;0.10;;;18.40;99.90;;;;;;5045137;28;20048;-68
2023/09/20 11:06:50;;;;;;;0.10;0.10;;;18.50;99.90;;;;;;5048280;28;20093;-67
2023/09/20 11:09:15;;;;;;;0.73;0.73;;;18.50;99.90;;;;;;5044319;28;20036;-67
2023/09/20 11:11:42;;;;;;;0.63;0.20;;;18.50;99.90;;;;;;5048119;28;20040;-65
2023/09/20 11:14:12;;;;;;;0.80;0.38;;;18.50;99.90;;;;;;5059421;28;20395;-67
2023/09/20 11:16:41;;;;;;;0.20;0.20;;;18.60;99.90;;;;;;5032777;28;20041;-67
2023/09/20 11:19:11;;;;;;;0.52;0.17;;;18.60;99.90;;;;;;5051039;28;20435;-67
2023/09/20 11:21:38;;;;;;;0.20;0.20;;;18.70;99.90;;;;;;5047806;28;20154;-68
2023/09/20 11:24:06;;;;;;;0.43;0.17;;;18.80;99.90;;;;;;5036463;28;20045;-66
2023/09/20 11:26:32;;;;;;;0.10;0.10;;;18.80;99.90;;;;;;5049710;28;20037;-67
2023/09/20 11:28:57;;;;;;;0.22;0.22;;;18.80;99.90;;;;;;5038614;28;20060;-67
2023/09/20 11:31:35;;;;;;;0.20;0.20;;;18.90;99.90;;;;;;5033852;28;20044;-66
2023/09/20 11:34:03;;;;;;;0.63;0.50;;;18.90;99.90;;;;;;5032799;28;20083;-67
2023/09/20 11:36:35;;;;;;;0.20;0.20;;;18.90;99.90;;;;;;5034640;28;20041;-67
2023/09/20 11:39:01;;;;;;;0.35;0.35;;;19.00;99.90;;;;;;5043299;28;20044;-67
2023/09/20 11:41:26;;;;;;;0.32;0.32;;;19.10;99.90;;;;;;5039376;28;20506;-67
2023/09/20 11:44:00;;;;;;;0.98;0.88;;;19.20;99.90;;;;;;5035524;28;20048;-67
2023/09/20 11:46:35;;;;;;;1.02;0.47;;;19.40;99.90;;;;;;5030582;28;20398;-68
2023/09/20 11:49:03;;;;;;;6.50;0.22;;;19.50;99.90;;;;;;5040529;28;20045;-67
2023/09/20 11:51:30;;;;;;;0.30;0.30;;;19.60;99.90;;;;;;5077827;28;20120;-68
2023/09/20 11:53:56;;;;;;;0.20;0.10;;;19.70;99.90;;;;;;5051580;28;20044;-67
2023/09/20 11:56:31;;;;;;;0.17;0.17;;;19.70;99.90;;;;;;5043113;28;20028;-68
2023/09/20 11:59:02;;;;;;;0.40;0.40;;;19.80;99.90;;;;;;5058696;28;20115;-67
2023/09/20 12:01:29;;;;;;;0.52;0.52;;;19.80;99.90;;;;;;5040473;28;20036;-68
2023/09/20 12:03:55;;;;;;;1.23;1.13;;;19.80;99.90;;;;;;5064016;28;20040;-67
2023/09/20 12:06:21;;;;;;;0.93;0.40;;;19.80;99.90;;;;;;5040764;28;20056;-68
2023/09/20 12:08:48;;;;;;;0.28;0.28;;;19.80;99.90;;;;;;5032191;28;20543;-67
2023/09/20 12:11:14;;;;;;;0.20;0.20;;;19.80;99.90;;;;;;5036495;28;20047;-67
2023/09/20 12:13:42;;;;;;;1.20;0.80;;;19.70;99.90;;;;;;5031473;28;20037;-67
2023/09/20 12:16:08;;;;;;;0.10;0.10;;;19.70;99.90;;;;;;5038482;28;20120;-66
2023/09/20 12:18:36;;;;;;;0.20;0.20;;;19.70;99.90;;;;;;5038612;28;20166;-68
2023/09/20 12:21:07;;;;;;;0.28;0.28;;;19.60;99.90;;;;;;5077182;28;20048;-67
2023/09/20 12:23:35;;;;;;;0.70;0.22;;;19.70;99.90;;;;;;5046068;28;20041;-67
2023/09/20 12:26:01;;;;;;;0.30;0.30;;;19.70;99.90;;;;;;5045481;28;20048;-66
2023/09/20 12:28:27;;;;;;;1.95;1.40;;;19.80;99.90;;;;;;5085928;28;20040;-67
2023/09/20 12:30:52;;;;;;;0.40;0.40;;;19.80;99.90;;;;;;5038549;28;20391;-68
2023/09/20 12:33:19;;;;;;;0.43;0.43;;;19.80;99.90;;;;;;5039166;28;21557;-68
2023/09/20 12:35:46;;;;;;;0.90;0.65;;;19.80;99.90;;;;;;5037476;28;20056;-66
2023/09/20 12:38:11;;;;;;;0.40;0.40;;;19.80;99.90;;;;;;5054066;28;20036;-68
2023/09/20 12:40:37;;;;;;;1.02;0.52;;;19.90;99.90;;;;;;5045908;28;20048;-66
2023/09/20 12:43:03;;;;;;;0.10;0.10;;;19.80;99.90;;;;;;5069004;28;20040;-67
2023/09/20 12:45:29;;;;;;;0.50;0.50;;;19.80;99.90;;;;;;5049013;28;20090;-68
2023/09/20 12:47:55;;;;;;;0.90;0.90;;;19.80;99.90;;;;;;5034430;28;20044;-69
2023/09/20 12:50:21;;;;;;;0.40;0.22;;;19.90;99.90;;;;;;5036241;28;20036;-68
2023/09/20 12:52:48;;;;;;;0.22;0.20;;;20.10;99.90;;;;;;5047040;28;20142;-67
2023/09/20 12:55:14;;;;;;;0.35;0.35;;;20.20;99.90;;;;;;5051273;28;20044;-67
2023/09/20 12:57:40;;;;;;;0.20;0.20;;;20.20;99.90;;;;;;5032357;28;20041;-68
2023/09/20 13:00:09;;;;;;;0.20;0.20;;;20.20;99.90;;;;;;5049029;28;20483;-68
2023/09/20 13:02:34;;;;;;;0.70;0.43;;;20.20;99.90;;;;;;5051076;28;20083;-68
2023/09/20 13:05:00;;;;;;;3.22;1.02;;;20.20;99.90;;;;;;5054368;28;20499;-67
2023/09/20 13:07:27;;;;;;;1.42;0.50;;;20.30;99.90;;;;;;5052727;28;20086;-68
2023/09/20 13:09:58;;;;;;;0.22;0.20;;;20.40;99.90;;;;;;5049079;28;20044;-68
2023/09/20 13:12:24;;;;;;;0.20;0.20;;;20.50;99.90;;;;;;5044650;28;20076;-67
2023/09/20 13:14:50;;;;;;;0.90;0.75;;;20.60;99.90;;;;;;5032817;28;20427;-68
2023/09/20 13:17:16;;;;;;;4.57;0.35;;;20.60;99.90;;;;;;5044379;28;20049;-68
2023/09/20 13:19:42;;;;;;;0.55;0.55;;;20.50;99.90;;;;;;5046427;28;20044;-69
2023/09/20 13:22:09;;;;;;;0.35;0.35;;;20.50;99.90;;;;;;5049695;28;20044;-68
2023/09/20 13:24:35;;;;;;;0.10;0.10;;;20.50;99.90;;;;;;5046386;28;20258;-67
2023/09/20 13:27:02;;;;;;;0.73;0.70;;;20.50;99.90;;;;;;5068607;28;20379;-67